createdAt,value
2018-01-12T00:00:23.416Z,91.23
2018-01-12T00:01:25.881Z,90.81
2018-01-12T00:02:28.342Z,90.42
2018-01-12T00:03:30.848Z,90.69
2018-01-12T00:04:33.342Z,91.12
2018-01-12T00:05:35.837Z,91.42
2018-01-12T00:06:38.302Z,91.60
2018-01-12T00:07:40.780Z,91.11
2018-01-12T00:08:43.275Z,91.12
2018-01-12T00:09:45.752Z,91.43
2018-01-12T00:10:48.214Z,91.64
2018-01-12T00:11:50.671Z,91.77
2018-01-12T00:12:53.148Z,91.76
2018-01-12T00:13:55.626Z,91.86
2018-01-12T00:14:58.113Z,91.86
2018-01-12T00:16:00.583Z,92.03
2018-01-12T00:17:03.050Z,91.99
2018-01-12T00:18:05.510Z,91.10
2018-01-12T00:19:07.991Z,91.07
2018-01-12T00:20:10.464Z,90.92
2018-01-12T00:21:12.940Z,91.12
2018-01-12T00:22:15.420Z,91.44
2018-01-12T00:23:17.900Z,91.76
2018-01-12T00:24:20.390Z,91.95
2018-01-12T00:25:22.859Z,91.17
2018-01-12T00:26:25.340Z,90.34
2018-01-12T00:27:27.807Z,89.81
2018-01-12T00:28:30.289Z,90.04
2018-01-12T00:29:32.788Z,90.59
2018-01-12T00:30:35.266Z,90.89
2018-01-12T00:31:37.723Z,91.16
2018-01-12T00:32:40.185Z,91.31
2018-01-12T00:33:42.671Z,91.55
2018-01-12T00:34:45.168Z,91.74
2018-01-12T00:35:47.629Z,91.72
2018-01-12T00:36:50.086Z,91.67
2018-01-12T00:37:52.568Z,91.37
2018-01-12T00:38:55.030Z,91.49
2018-01-12T00:39:57.540Z,91.64
2018-01-12T00:41:00.026Z,91.77
2018-01-12T00:42:02.489Z,91.91
2018-01-12T00:43:05.012Z,92.11
2018-01-12T00:44:07.474Z,92.00
2018-01-12T00:45:09.977Z,92.10
2018-01-12T00:46:12.451Z,92.55
2018-01-12T00:47:14.928Z,92.46
2018-01-12T00:48:17.394Z,92.13
2018-01-12T00:49:19.858Z,92.20
2018-01-12T00:50:22.338Z,92.26
2018-01-12T00:51:24.816Z,92.27
2018-01-12T00:52:27.292Z,92.16
2018-01-12T00:53:29.776Z,92.13
2018-01-12T00:54:32.238Z,92.21
2018-01-12T00:55:34.718Z,92.26
2018-01-12T00:56:37.187Z,91.59
2018-01-12T00:57:39.660Z,91.53
2018-01-12T00:58:42.134Z,91.80
2018-01-12T00:59:44.608Z,91.81
2018-01-12T01:00:47.105Z,91.15
2018-01-12T01:01:49.588Z,91.22
2018-01-12T01:02:52.058Z,91.60
2018-01-12T01:03:54.522Z,91.43
2018-01-12T01:04:57.005Z,91.66
2018-01-12T01:05:59.506Z,90.65
2018-01-12T01:07:01.974Z,90.36
2018-01-12T01:08:04.434Z,90.69
2018-01-12T01:09:06.990Z,91.12
2018-01-12T01:10:09.426Z,91.46
2018-01-12T01:11:11.902Z,91.85
2018-01-12T01:12:14.366Z,92.24
2018-01-12T01:13:16.830Z,92.46
2018-01-12T01:14:19.294Z,92.57
2018-01-12T01:15:21.768Z,92.56
2018-01-12T01:16:24.250Z,92.55
2018-01-12T01:17:26.714Z,92.59
2018-01-12T01:18:29.177Z,92.18
2018-01-12T01:19:31.760Z,92.06
2018-01-12T01:20:34.260Z,92.22
2018-01-12T01:21:36.753Z,92.39
2018-01-12T01:22:39.218Z,92.60
2018-01-12T01:23:41.697Z,91.47
2018-01-12T01:24:44.154Z,90.64
2018-01-12T01:25:46.636Z,90.73
2018-01-12T01:26:49.144Z,91.08
2018-01-12T01:27:51.621Z,91.42
2018-01-12T01:28:54.129Z,91.91
2018-01-12T01:29:56.602Z,91.49
2018-01-12T01:30:59.079Z,91.38
2018-01-12T01:32:01.576Z,91.48
2018-01-12T01:33:04.033Z,91.68
2018-01-12T01:34:06.493Z,91.83
2018-01-12T01:35:08.958Z,91.92
2018-01-12T01:36:11.432Z,92.17
2018-01-12T01:37:13.926Z,92.44
2018-01-12T01:38:16.386Z,92.55
2018-01-12T01:39:18.862Z,92.67
2018-01-12T01:40:21.326Z,92.80
2018-01-12T01:41:23.782Z,92.88
2018-01-12T01:42:26.282Z,93.00
2018-01-12T01:43:28.769Z,93.11
2018-01-12T01:44:31.225Z,93.17
2018-01-12T01:45:33.704Z,93.14
2018-01-12T01:46:36.165Z,93.19
2018-01-12T01:47:38.669Z,92.87
2018-01-12T01:48:41.933Z,91.78
2018-01-12T01:49:44.408Z,91.92
2018-01-12T01:50:46.893Z,92.23
2018-01-12T01:51:49.359Z,92.20
2018-01-12T01:52:51.856Z,92.46
2018-01-12T01:53:54.336Z,92.71
2018-01-12T01:54:56.815Z,92.90
2018-01-12T01:55:59.296Z,92.96
2018-01-12T01:57:01.778Z,92.90
2018-01-12T01:58:04.254Z,92.99
2018-01-12T01:59:06.722Z,93.25
2018-01-12T02:00:09.239Z,93.56
2018-01-12T02:01:11.701Z,93.56
2018-01-12T02:02:14.204Z,93.53
2018-01-12T02:03:16.683Z,93.54
2018-01-12T02:04:19.159Z,93.19
2018-01-12T02:05:21.634Z,93.28
2018-01-12T02:06:24.099Z,93.40
2018-01-12T02:07:26.558Z,93.43
2018-01-12T02:08:29.056Z,93.44
2018-01-12T02:09:31.544Z,93.44
2018-01-12T02:10:34.026Z,93.24
2018-01-12T02:11:36.490Z,93.23
2018-01-12T02:12:38.959Z,93.40
2018-01-12T02:13:41.464Z,93.66
2018-01-12T02:14:43.936Z,93.87
2018-01-12T02:15:46.420Z,93.96
2018-01-12T02:16:48.900Z,94.07
2018-01-12T02:17:51.380Z,94.08
2018-01-12T02:18:53.912Z,94.16
2018-01-12T02:19:56.374Z,94.35
2018-01-12T02:20:58.834Z,93.86
2018-01-12T02:22:01.298Z,93.93
2018-01-12T02:23:03.766Z,93.98
2018-01-12T02:24:06.260Z,93.98
2018-01-12T02:25:08.730Z,93.81
2018-01-12T02:26:11.208Z,93.77
2018-01-12T02:27:13.686Z,94.08
2018-01-12T02:28:16.168Z,94.26
2018-01-12T02:29:18.651Z,94.24
2018-01-12T02:30:21.126Z,94.39
2018-01-12T02:31:23.598Z,94.67
2018-01-12T02:32:26.085Z,94.92
2018-01-12T02:33:28.564Z,95.01
2018-01-12T02:34:31.054Z,95.08
2018-01-12T02:35:33.519Z,94.55
2018-01-12T02:36:35.981Z,94.43
2018-01-12T02:37:38.461Z,94.43
2018-01-12T02:38:40.927Z,94.13
2018-01-12T02:39:43.402Z,93.22
2018-01-12T02:40:45.870Z,92.84
2018-01-12T02:41:48.352Z,92.81
2018-01-12T02:42:50.813Z,93.23
2018-01-12T02:43:53.302Z,93.58
2018-01-12T02:44:55.832Z,93.57
2018-01-12T02:45:58.297Z,93.32
2018-01-12T02:47:00.780Z,93.56
2018-01-12T02:48:03.255Z,93.53
2018-01-12T02:49:05.765Z,93.06
2018-01-12T02:50:08.267Z,93.02
2018-01-12T02:51:10.740Z,92.82
2018-01-12T02:52:13.220Z,93.10
2018-01-12T02:53:15.683Z,93.38
2018-01-12T02:54:18.165Z,93.56
2018-01-12T02:55:20.674Z,93.74
2018-01-12T02:56:23.156Z,93.86
2018-01-12T02:57:25.637Z,93.94
2018-01-12T02:58:28.106Z,93.86
2018-01-12T02:59:30.593Z,93.89
2018-01-12T03:00:33.135Z,93.97
2018-01-12T03:01:35.603Z,94.11
2018-01-12T03:02:38.084Z,93.84
2018-01-12T03:03:40.560Z,93.75
2018-01-12T03:04:43.045Z,93.83
2018-01-12T03:05:45.548Z,94.01
2018-01-12T03:06:48.025Z,94.12
2018-01-12T03:07:50.512Z,94.16
2018-01-12T03:08:52.969Z,94.06
2018-01-12T03:09:55.430Z,94.19
2018-01-12T03:10:57.924Z,94.55
2018-01-12T03:12:00.420Z,94.63
2018-01-12T03:13:02.909Z,94.42
2018-01-12T03:14:05.373Z,94.33
2018-01-12T03:15:07.838Z,94.12
2018-01-12T03:16:10.326Z,94.26
2018-01-12T03:17:12.808Z,94.42
2018-01-12T03:18:15.273Z,94.51
2018-01-12T03:19:17.756Z,94.54
2018-01-12T03:20:20.236Z,94.42
2018-01-12T03:21:22.725Z,94.42
2018-01-12T03:22:25.208Z,94.55
2018-01-12T03:23:27.693Z,94.41
2018-01-12T03:24:30.172Z,94.42
2018-01-12T03:25:32.635Z,94.32
2018-01-12T03:26:35.139Z,94.19
2018-01-12T03:27:37.619Z,94.26
2018-01-12T03:28:40.096Z,94.30
2018-01-12T03:29:42.562Z,94.21
2018-01-12T03:30:45.033Z,94.15
2018-01-12T03:31:47.534Z,94.19
2018-01-12T03:32:50.010Z,94.39
2018-01-12T03:33:52.490Z,94.60
2018-01-12T03:34:54.958Z,94.57
2018-01-12T03:35:57.448Z,94.72
2018-01-12T03:36:59.934Z,94.95
2018-01-12T03:38:02.419Z,94.89
2018-01-12T03:39:04.900Z,94.63
2018-01-12T03:40:07.388Z,94.47
2018-01-12T03:41:09.853Z,94.36
2018-01-12T03:42:12.355Z,94.26
2018-01-12T03:43:14.876Z,94.30
2018-01-12T03:44:17.339Z,94.32
2018-01-12T03:45:19.820Z,94.42
2018-01-12T03:46:22.287Z,94.23
2018-01-12T03:47:24.774Z,92.94
2018-01-12T03:48:27.253Z,92.19
2018-01-12T03:49:29.736Z,92.17
2018-01-12T03:50:32.216Z,92.58
2018-01-12T03:51:34.703Z,92.98
2018-01-12T03:52:37.190Z,93.35
2018-01-12T03:53:39.650Z,93.57
2018-01-12T03:54:42.117Z,93.88
2018-01-12T03:55:44.601Z,93.83
2018-01-12T03:56:47.092Z,93.94
2018-01-12T03:57:49.570Z,93.71
2018-01-12T03:58:52.049Z,93.81
2018-01-12T03:59:54.537Z,94.07
2018-01-12T04:00:57.041Z,94.06
2018-01-12T04:01:59.506Z,94.09
2018-01-12T04:03:02.050Z,94.23
2018-01-12T04:04:04.528Z,94.34
2018-01-12T04:05:06.985Z,94.21
2018-01-12T04:06:09.466Z,94.34
2018-01-12T04:07:11.950Z,94.33
2018-01-12T04:08:14.430Z,94.05
2018-01-12T04:09:16.899Z,94.04
2018-01-12T04:10:19.364Z,93.62
2018-01-12T04:11:21.846Z,93.33
2018-01-12T04:12:24.308Z,93.25
2018-01-12T04:13:26.840Z,93.61
2018-01-12T04:14:29.306Z,93.60
2018-01-12T04:15:31.800Z,93.11
2018-01-12T04:16:34.262Z,92.51
2018-01-12T04:17:36.725Z,92.16
2018-01-12T04:18:39.230Z,92.42
2018-01-12T04:19:41.720Z,92.83
2018-01-12T04:20:44.200Z,92.40
2018-01-12T04:21:46.675Z,92.28
2018-01-12T04:22:49.142Z,92.20
2018-01-12T04:23:51.630Z,92.57
2018-01-12T04:24:54.174Z,92.68
2018-01-12T04:25:56.724Z,92.91
2018-01-12T04:26:59.182Z,92.68
2018-01-12T04:28:01.664Z,92.79
2018-01-12T04:29:04.150Z,92.97
2018-01-12T04:30:06.624Z,93.14
2018-01-12T04:31:09.101Z,93.50
2018-01-12T04:32:11.566Z,93.51
2018-01-12T04:33:14.038Z,93.56
2018-01-12T04:34:16.537Z,93.60
2018-01-12T04:35:19.028Z,93.70
2018-01-12T04:36:21.505Z,93.78
2018-01-12T04:37:23.982Z,93.74
2018-01-12T04:38:26.452Z,93.95
2018-01-12T04:39:28.952Z,94.06
2018-01-12T04:40:31.413Z,94.16
2018-01-12T04:41:33.887Z,94.28
2018-01-12T04:42:36.350Z,94.44
2018-01-12T04:43:38.827Z,94.62
2018-01-12T04:44:41.328Z,94.54
2018-01-12T04:45:43.813Z,94.41
2018-01-12T04:46:46.282Z,94.32
2018-01-12T04:47:48.774Z,94.36
2018-01-12T04:48:51.252Z,93.92
2018-01-12T04:49:53.750Z,93.04
2018-01-12T04:50:56.210Z,92.89
2018-01-12T04:51:58.688Z,93.08
2018-01-12T04:53:01.160Z,93.32
2018-01-12T04:54:03.626Z,93.50
2018-01-12T04:55:06.110Z,93.73
2018-01-12T04:56:08.583Z,93.79
2018-01-12T04:57:11.068Z,93.70
2018-01-12T04:58:13.556Z,93.81
2018-01-12T04:59:16.018Z,94.00
2018-01-12T05:00:18.510Z,93.72
2018-01-12T05:01:20.988Z,93.42
2018-01-12T05:02:23.472Z,93.48
2018-01-12T05:03:25.961Z,93.68
2018-01-12T05:04:28.434Z,93.77
2018-01-12T05:05:30.930Z,93.87
2018-01-12T05:06:33.485Z,93.69
2018-01-12T05:07:35.951Z,93.72
2018-01-12T05:08:38.436Z,93.75
2018-01-12T05:09:40.910Z,93.97
2018-01-12T05:10:43.399Z,94.18
2018-01-12T05:11:45.877Z,94.33
2018-01-12T05:12:48.339Z,94.36
2018-01-12T05:13:50.824Z,94.47
2018-01-12T05:14:53.294Z,93.89
2018-01-12T05:15:55.805Z,92.98
2018-01-12T05:16:58.284Z,92.98
2018-01-12T05:18:00.746Z,92.97
2018-01-12T05:19:03.230Z,93.23
2018-01-12T05:20:05.702Z,93.48
2018-01-12T05:21:08.196Z,93.52
2018-01-12T05:22:10.663Z,93.15
2018-01-12T05:23:13.187Z,93.31
2018-01-12T05:24:15.671Z,93.57
2018-01-12T05:25:18.161Z,93.54
2018-01-12T05:26:20.681Z,93.73
2018-01-12T05:27:23.160Z,93.53
2018-01-12T05:28:25.632Z,93.35
2018-01-12T05:29:28.185Z,93.39
2018-01-12T05:30:30.650Z,93.40
2018-01-12T05:31:33.139Z,93.43
2018-01-12T05:32:35.620Z,93.16
2018-01-12T05:33:38.100Z,93.60
2018-01-12T05:34:40.588Z,94.06
2018-01-12T05:35:43.068Z,94.37
2018-01-12T05:36:45.577Z,94.60
2018-01-12T05:37:48.050Z,94.83
2018-01-12T05:38:50.517Z,94.56
2018-01-12T05:39:53.020Z,94.35
2018-01-12T05:40:55.487Z,93.59
2018-01-12T05:41:57.998Z,93.76
2018-01-12T05:43:00.476Z,93.88
2018-01-12T05:44:02.942Z,94.28
2018-01-12T05:45:05.421Z,94.69
2018-01-12T05:46:07.900Z,94.66
2018-01-12T05:47:10.400Z,94.87
2018-01-12T05:48:12.883Z,95.11
2018-01-12T05:49:15.364Z,95.21
2018-01-12T05:50:17.826Z,95.30
2018-01-12T05:51:20.297Z,95.55
2018-01-12T05:52:22.802Z,95.65
2018-01-12T05:53:25.290Z,95.61
2018-01-12T05:54:27.780Z,95.46
2018-01-12T05:55:30.258Z,95.25
2018-01-12T05:56:32.744Z,94.98
2018-01-12T05:57:35.245Z,94.83
2018-01-12T05:58:37.718Z,95.08
2018-01-12T05:59:40.241Z,95.08
2018-01-12T06:00:54.686Z,95.21
2018-01-12T06:02:08.764Z,95.06
2018-01-12T06:03:22.958Z,95.04
2018-01-12T06:04:37.186Z,95.13
2018-01-12T06:05:51.352Z,95.26
2018-01-12T06:06:53.856Z,95.23
2018-01-12T06:07:56.317Z,94.84
2018-01-12T06:08:58.820Z,94.65
2018-01-12T06:10:01.294Z,94.42
2018-01-12T06:11:03.758Z,94.30
2018-01-12T06:12:06.241Z,93.59
2018-01-12T06:13:08.758Z,93.33
2018-01-12T06:14:11.248Z,93.67
2018-01-12T06:15:13.724Z,92.65
2018-01-12T06:16:16.191Z,92.16
2018-01-12T06:17:18.672Z,91.84
2018-01-12T06:18:21.134Z,92.00
2018-01-12T06:19:23.618Z,92.15
2018-01-12T06:20:26.082Z,92.22
2018-01-12T06:21:28.546Z,92.40
2018-01-12T06:22:31.010Z,91.80
2018-01-12T06:23:33.474Z,91.90
2018-01-12T06:24:35.977Z,91.67
2018-01-12T06:25:38.438Z,91.58
2018-01-12T06:26:40.920Z,91.71
2018-01-12T06:27:43.397Z,91.88
2018-01-12T06:28:45.876Z,92.67
2018-01-12T06:29:48.363Z,93.08
2018-01-12T06:30:50.826Z,93.26
2018-01-12T06:31:53.298Z,93.42
2018-01-12T06:32:55.824Z,93.45
2018-01-12T06:33:58.290Z,93.43
2018-01-12T06:35:00.784Z,93.31
2018-01-12T06:36:03.246Z,93.24
2018-01-12T06:37:05.734Z,93.32
2018-01-12T06:38:08.724Z,93.08
2018-01-12T06:39:11.206Z,93.13
2018-01-12T06:40:13.704Z,92.94
2018-01-12T06:41:16.170Z,92.75
2018-01-12T06:42:18.670Z,93.11
2018-01-12T06:43:21.148Z,93.23
2018-01-12T06:44:23.614Z,93.60
2018-01-12T06:45:26.098Z,92.90
2018-01-12T06:46:28.564Z,92.71
2018-01-12T06:47:31.045Z,92.90
2018-01-12T06:48:33.524Z,92.76
2018-01-12T06:49:36.061Z,92.80
2018-01-12T06:50:38.701Z,92.39
2018-01-12T06:51:41.178Z,91.50
2018-01-12T06:52:43.656Z,91.24
2018-01-12T06:53:46.132Z,92.55
2018-01-12T06:54:48.608Z,92.25
2018-01-12T06:55:51.128Z,92.65
2018-01-12T06:56:53.601Z,92.49
2018-01-12T06:57:56.145Z,92.84
2018-01-12T06:58:58.610Z,92.87
2018-01-12T07:00:01.092Z,92.35
2018-01-12T07:01:03.585Z,91.97
2018-01-12T07:02:06.052Z,92.04
2018-01-12T07:03:08.526Z,92.34
2018-01-12T07:04:11.004Z,92.26
2018-01-12T07:05:13.480Z,92.12
2018-01-12T07:06:16.014Z,92.18
2018-01-12T07:07:18.476Z,91.52
2018-01-12T07:08:20.951Z,91.65
2018-01-12T07:09:23.413Z,91.67
2018-01-12T07:10:25.878Z,91.96
2018-01-12T07:11:28.396Z,92.26
2018-01-12T07:12:30.858Z,92.64
2018-01-12T07:13:33.319Z,92.91
2018-01-12T07:14:35.830Z,93.21
2018-01-12T07:15:38.295Z,93.47
2018-01-12T07:16:40.813Z,93.83
2018-01-12T07:17:43.295Z,93.98
2018-01-12T07:18:45.759Z,94.17
2018-01-12T07:19:48.230Z,93.72
2018-01-12T07:21:02.620Z,93.46
2018-01-12T07:22:16.907Z,93.75
2018-01-12T07:23:31.421Z,93.91
2018-01-12T07:24:33.888Z,93.55
2018-01-12T07:25:36.356Z,92.95
2018-01-12T07:26:38.838Z,92.41
2018-01-12T07:27:41.355Z,92.79
2018-01-12T07:28:43.832Z,93.06
2018-01-12T07:29:46.298Z,93.20
2018-01-12T07:30:48.780Z,92.78
2018-01-12T07:31:51.255Z,92.81
2018-01-12T07:32:53.746Z,93.02
2018-01-12T07:33:56.236Z,93.48
2018-01-12T07:34:58.723Z,93.90
2018-01-12T07:36:01.186Z,93.84
2018-01-12T07:37:03.665Z,93.75
2018-01-12T07:38:06.177Z,93.75
2018-01-12T07:39:08.652Z,93.82
2018-01-12T07:40:11.140Z,94.08
2018-01-12T07:41:13.623Z,94.25
2018-01-12T07:42:16.090Z,94.27
2018-01-12T07:43:18.583Z,94.31
2018-01-12T07:44:21.085Z,94.33
2018-01-12T07:45:23.572Z,94.21
2018-01-12T07:46:26.034Z,94.19
2018-01-12T07:47:28.536Z,94.20
2018-01-12T07:48:31.036Z,94.09
2018-01-12T07:49:33.850Z,93.87
2018-01-12T07:50:36.350Z,94.11
2018-01-12T07:51:38.827Z,94.25
2018-01-12T07:52:46.974Z,94.42
2018-01-12T07:53:49.476Z,94.24
2018-01-12T07:54:51.950Z,94.36
2018-01-12T07:55:54.426Z,94.51
2018-01-12T07:56:56.925Z,94.33
2018-01-12T07:57:59.398Z,94.17
2018-01-12T07:59:01.894Z,93.40
2018-01-12T08:00:04.364Z,93.67
2018-01-12T08:01:12.450Z,93.87
2018-01-12T08:02:20.544Z,94.03
2018-01-12T08:03:23.024Z,94.33
2018-01-12T08:04:25.524Z,94.68
2018-01-12T08:05:28.004Z,94.22
2018-01-12T08:06:30.503Z,94.06
2018-01-12T08:07:32.980Z,93.95
2018-01-12T08:08:35.460Z,93.71
2018-01-12T08:09:37.942Z,93.78
2018-01-12T08:10:40.415Z,93.67
2018-01-12T08:11:42.874Z,93.76
2018-01-12T08:12:45.351Z,94.05
2018-01-12T08:13:47.820Z,94.08
2018-01-12T08:14:50.306Z,94.14
2018-01-12T08:15:52.770Z,94.06
2018-01-12T08:16:55.298Z,94.02
2018-01-12T08:17:57.794Z,93.91
2018-01-12T08:19:00.273Z,93.97
2018-01-12T08:20:02.773Z,93.81
2018-01-12T08:21:05.248Z,93.68
2018-01-12T08:22:07.706Z,92.99
2018-01-12T08:23:10.167Z,92.94
2018-01-12T08:24:12.648Z,92.90
2018-01-12T08:25:15.125Z,93.43
2018-01-12T08:26:17.588Z,93.92
2018-01-12T08:27:20.050Z,94.17
2018-01-12T08:28:22.513Z,93.68
2018-01-12T08:29:25.032Z,93.80
2018-01-12T08:30:27.513Z,94.16
2018-01-12T08:31:29.987Z,94.21
2018-01-12T08:32:32.465Z,92.94
2018-01-12T08:33:34.944Z,92.65
2018-01-12T08:34:37.426Z,93.00
2018-01-12T08:35:39.915Z,93.53
2018-01-12T08:36:42.388Z,93.90
2018-01-12T08:37:44.901Z,93.89
2018-01-12T08:38:47.394Z,93.54
2018-01-12T08:39:49.880Z,93.65
2018-01-12T08:40:52.361Z,93.49
2018-01-12T08:41:54.846Z,93.49
2018-01-12T08:42:57.321Z,93.51
2018-01-12T08:43:59.788Z,93.71
2018-01-12T08:45:02.249Z,94.20
2018-01-12T08:46:04.725Z,94.26
2018-01-12T08:47:07.292Z,93.69
2018-01-12T08:48:09.768Z,93.38
2018-01-12T08:49:12.254Z,93.22
2018-01-12T08:50:14.752Z,93.25
2018-01-12T08:51:17.240Z,92.67
2018-01-12T08:52:19.716Z,92.34
2018-01-12T08:53:22.204Z,91.71
2018-01-12T08:54:24.687Z,91.77
2018-01-12T08:55:27.169Z,91.17
2018-01-12T08:56:29.658Z,91.07
2018-01-12T08:57:32.145Z,91.60
2018-01-12T08:58:34.628Z,91.62
2018-01-12T08:59:37.110Z,91.88
2018-01-12T09:00:39.574Z,91.64
2018-01-12T09:01:42.070Z,91.66
2018-01-12T09:02:44.602Z,91.57
2018-01-12T09:03:47.070Z,91.69
2018-01-12T09:04:49.531Z,91.15
2018-01-12T09:05:52.007Z,91.43
2018-01-12T09:06:54.596Z,91.65
2018-01-12T09:07:57.064Z,91.98
2018-01-12T09:08:59.540Z,91.69
2018-01-12T09:10:02.022Z,91.34
2018-01-12T09:11:04.487Z,91.59
2018-01-12T09:12:06.971Z,91.80
2018-01-12T09:13:21.219Z,91.86
2018-01-12T09:14:35.391Z,92.33
2018-01-12T09:15:37.858Z,92.31
2018-01-12T09:16:40.398Z,92.69
2018-01-12T09:17:48.766Z,92.93
2018-01-12T09:19:03.105Z,92.51
2018-01-12T09:20:16.290Z,92.44
2018-01-12T09:21:25.225Z,91.32
2018-01-12T09:22:28.457Z,91.62
2018-01-12T09:23:32.060Z,92.10
2018-01-12T09:24:34.526Z,92.37
2018-01-12T09:25:37.403Z,92.75
2018-01-12T09:26:39.866Z,93.28
2018-01-12T09:27:42.329Z,93.43
2018-01-12T09:28:44.819Z,93.44
2018-01-12T09:29:47.286Z,93.31
2018-01-12T09:30:49.809Z,93.29
2018-01-12T09:31:52.264Z,93.21
2018-01-12T09:32:54.756Z,91.72
2018-01-12T09:33:57.214Z,90.81
2018-01-12T09:35:00.663Z,90.47
2018-01-12T09:36:03.149Z,90.92
2018-01-12T09:37:05.611Z,90.96
2018-01-12T09:38:20.003Z,90.93
2018-01-12T09:39:34.149Z,91.47
2018-01-12T09:40:47.814Z,92.07
2018-01-12T09:41:50.281Z,91.86
2018-01-12T09:42:52.741Z,91.63
2018-01-12T09:43:55.218Z,91.49
2018-01-12T09:44:57.703Z,91.42
2018-01-12T09:46:00.213Z,91.28
2018-01-12T09:47:14.617Z,91.25
2018-01-12T09:48:37.978Z,91.51
2018-01-12T09:49:50.315Z,90.74
2018-01-12T09:50:52.778Z,91.02
2018-01-12T09:51:55.238Z,91.35
2018-01-12T09:52:57.722Z,91.17
2018-01-12T09:54:00.209Z,91.73
2018-01-12T09:55:02.696Z,90.65
2018-01-12T09:56:05.208Z,90.84
2018-01-12T09:57:07.656Z,90.95
2018-01-12T09:58:10.119Z,91.47
2018-01-12T09:59:12.600Z,91.92
2018-01-12T10:00:23.878Z,91.86
2018-01-12T10:01:26.352Z,92.10
2018-01-12T10:02:28.817Z,92.08
2018-01-12T10:03:31.314Z,91.70
2018-01-12T10:04:33.783Z,91.60
2018-01-12T10:05:36.329Z,90.70
2018-01-12T10:06:38.812Z,90.41
2018-01-12T10:07:50.058Z,90.11
2018-01-12T10:08:59.356Z,89.78
2018-01-12T10:10:11.752Z,89.90
2018-01-12T10:11:14.213Z,90.50
2018-01-12T10:12:16.691Z,90.64
2018-01-12T10:13:19.176Z,90.49
2018-01-12T10:14:21.694Z,90.85
2018-01-12T10:15:24.181Z,91.40
2018-01-12T10:16:26.659Z,91.52
2018-01-12T10:17:29.126Z,91.69
2018-01-12T10:18:35.599Z,91.56
2018-01-12T10:19:43.834Z,91.23
2018-01-12T10:20:46.335Z,89.99
2018-01-12T10:21:48.827Z,89.92
2018-01-12T10:22:51.304Z,88.42
2018-01-12T10:23:53.830Z,88.64
2018-01-12T10:24:56.315Z,88.55
2018-01-12T10:25:58.791Z,88.84
2018-01-12T10:27:01.267Z,89.50
2018-01-12T10:28:03.748Z,90.04
2018-01-12T10:29:06.979Z,90.25
2018-01-12T10:30:21.396Z,90.58
2018-01-12T10:31:35.703Z,90.48
2018-01-12T10:32:44.169Z,90.73
2018-01-12T10:33:58.608Z,91.05
2018-01-12T10:35:12.971Z,90.89
2018-01-12T10:36:21.228Z,91.17
2018-01-12T10:37:23.730Z,91.16
2018-01-12T10:38:26.185Z,90.73
2018-01-12T10:39:28.664Z,90.16
2018-01-12T10:40:41.847Z,89.93
2018-01-12T10:41:56.061Z,89.67
2018-01-12T10:42:58.578Z,88.99
2018-01-12T10:44:01.056Z,88.82
2018-01-12T10:45:03.521Z,89.63
2018-01-12T10:46:17.720Z,89.53
2018-01-12T10:47:26.200Z,89.72
2018-01-12T10:51:38.672Z,88.44
2018-01-12T10:52:50.049Z,88.41
2018-01-12T10:53:52.554Z,88.43
2018-01-12T10:54:55.018Z,88.52
2018-01-12T10:55:57.477Z,88.60
2018-01-12T10:56:59.937Z,88.20
2018-01-12T10:58:02.416Z,88.30
2018-01-12T10:59:04.879Z,88.03
2018-01-12T11:00:07.355Z,88.87
2018-01-12T11:01:09.815Z,89.51
2018-01-12T11:02:12.295Z,89.65
2018-01-12T11:03:14.771Z,89.99
2018-01-12T11:04:17.247Z,90.40
2018-01-12T11:05:19.710Z,90.66
2018-01-12T11:06:22.169Z,90.28
2018-01-12T11:07:24.646Z,89.20
2018-01-12T11:08:27.213Z,89.11
2018-01-12T11:09:29.674Z,88.91
2018-01-12T11:10:32.151Z,89.10
2018-01-12T11:11:34.617Z,88.23
2018-01-12T11:12:37.082Z,88.32
2018-01-12T11:13:39.568Z,88.10
2018-01-12T11:14:42.044Z,88.01
2018-01-12T11:15:44.525Z,88.44
2018-01-12T11:16:46.997Z,88.23
2018-01-12T11:17:49.566Z,88.04
2018-01-12T11:18:52.030Z,87.08
2018-01-12T11:19:54.579Z,87.28
2018-01-12T11:20:57.044Z,87.33
2018-01-12T11:21:59.595Z,87.15
2018-01-12T11:23:02.072Z,87.58
2018-01-12T11:24:04.533Z,87.53
2018-01-12T11:25:06.989Z,87.47
2018-01-12T11:26:09.450Z,86.40
2018-01-12T11:27:11.913Z,86.80
2018-01-12T11:28:14.382Z,87.03
2018-01-12T11:29:16.861Z,88.17
2018-01-12T11:30:19.365Z,88.00
2018-01-12T11:31:21.859Z,86.65
2018-01-12T11:32:24.348Z,85.79
2018-01-12T11:33:26.820Z,85.07
2018-01-12T11:34:29.303Z,84.68
2018-01-12T11:35:31.811Z,84.42
2018-01-12T11:36:34.296Z,84.43
2018-01-12T11:37:36.796Z,84.63
2018-01-12T11:38:39.266Z,84.85
2018-01-12T11:39:41.729Z,84.90
2018-01-12T11:40:44.193Z,84.99
2018-01-12T11:41:46.672Z,85.37
2018-01-12T11:42:49.163Z,85.59
2018-01-12T11:43:51.725Z,84.98
2018-01-12T11:44:54.287Z,85.08
2018-01-12T11:45:56.751Z,85.22
2018-01-12T11:46:59.228Z,84.98
2018-01-12T11:48:01.807Z,85.24
2018-01-12T11:49:04.358Z,85.25
2018-01-12T11:50:06.833Z,85.59
2018-01-12T11:51:09.318Z,85.20
2018-01-12T11:52:11.778Z,84.70
2018-01-12T11:53:14.299Z,84.45
2018-01-12T11:54:16.770Z,84.67
2018-01-12T11:55:19.249Z,85.71
2018-01-12T11:56:21.735Z,86.63
2018-01-12T11:57:24.216Z,86.52
2018-01-12T11:58:26.687Z,86.57
2018-01-12T11:59:29.155Z,86.82
2018-01-12T12:00:31.618Z,86.94
2018-01-12T12:01:34.085Z,86.80
2018-01-12T12:02:36.560Z,85.68
2018-01-12T12:03:39.033Z,85.54
2018-01-12T12:04:41.494Z,85.46
2018-01-12T12:05:43.958Z,85.77
2018-01-12T12:06:46.499Z,85.73
2018-01-12T12:07:49.017Z,84.16
2018-01-12T12:08:51.496Z,84.02
2018-01-12T12:09:53.958Z,84.07
2018-01-12T12:10:56.436Z,84.12
2018-01-12T12:11:58.902Z,83.62
2018-01-12T12:13:01.362Z,84.78
2018-01-12T12:14:03.843Z,83.96
2018-01-12T12:15:06.311Z,83.87
2018-01-12T12:16:08.777Z,84.10
2018-01-12T12:17:11.383Z,84.34
2018-01-12T12:18:13.845Z,84.70
2018-01-12T12:19:16.320Z,84.46
2018-01-12T12:20:18.814Z,84.52
2018-01-12T12:21:21.286Z,84.71
2018-01-12T12:22:23.746Z,84.76
2018-01-12T12:23:26.213Z,85.30
2018-01-12T12:24:28.690Z,85.90
2018-01-12T12:25:31.169Z,86.60
2018-01-12T12:26:33.632Z,86.27
2018-01-12T12:27:36.089Z,86.63
2018-01-12T12:28:38.554Z,87.03
2018-01-12T12:29:41.029Z,87.19
2018-01-12T12:30:43.493Z,86.85
2018-01-12T12:31:45.972Z,85.62
2018-01-12T12:32:48.438Z,85.05
2018-01-12T12:33:50.917Z,84.83
2018-01-12T12:34:53.392Z,83.81
2018-01-12T12:35:55.853Z,82.69
2018-01-12T12:36:58.321Z,82.28
2018-01-12T12:38:00.828Z,82.63
2018-01-12T12:39:03.324Z,83.08
2018-01-12T12:40:05.803Z,82.50
2018-01-12T12:41:08.262Z,82.91
2018-01-12T12:42:10.726Z,84.04
2018-01-12T12:43:13.208Z,83.52
2018-01-12T12:44:15.665Z,83.01
2018-01-12T12:45:18.143Z,83.24
2018-01-12T12:46:20.616Z,84.19
2018-01-12T12:47:23.086Z,84.00
2018-01-12T12:48:25.563Z,83.17
2018-01-12T12:49:28.029Z,83.41
2018-01-12T12:50:30.490Z,83.58
2018-01-12T12:51:32.953Z,83.17
2018-01-12T12:52:35.428Z,83.14
2018-01-12T12:53:37.889Z,83.11
2018-01-12T12:54:40.378Z,82.95
2018-01-12T12:55:42.853Z,83.15
2018-01-12T12:56:45.327Z,83.51
2018-01-12T12:57:47.833Z,83.77
2018-01-12T12:58:50.315Z,83.22
2018-01-12T12:59:52.792Z,82.98
2018-01-12T13:00:55.258Z,83.11
2018-01-12T13:01:57.742Z,83.40
2018-01-12T13:03:00.213Z,83.14
2018-01-12T13:04:02.704Z,83.45
2018-01-12T13:05:05.170Z,83.40
2018-01-12T13:06:07.629Z,83.20
2018-01-12T13:07:10.153Z,82.93
2018-01-12T13:08:12.604Z,82.82
2018-01-12T13:09:15.095Z,82.94
2018-01-12T13:10:17.588Z,83.04
2018-01-12T13:11:20.059Z,82.52
2018-01-12T13:12:22.544Z,82.43
2018-01-12T13:13:25.015Z,82.20
2018-01-12T13:14:27.492Z,82.57
2018-01-12T13:15:29.980Z,82.64
2018-01-12T13:16:32.470Z,82.43
2018-01-12T13:17:34.938Z,82.42
2018-01-12T13:18:37.411Z,82.49
2018-01-12T13:19:39.882Z,82.93
2018-01-12T13:20:42.346Z,83.54
2018-01-12T13:21:44.810Z,83.74
2018-01-12T13:22:47.300Z,83.59
2018-01-12T13:23:50.102Z,84.43
2018-01-12T13:24:52.586Z,84.64
2018-01-12T13:25:55.066Z,84.12
2018-01-12T13:26:57.525Z,83.72
2018-01-12T13:28:00.044Z,83.16
2018-01-12T13:29:02.521Z,82.54
2018-01-12T13:30:05.118Z,83.24
2018-01-12T13:31:07.591Z,83.78
2018-01-12T13:32:10.055Z,82.62
2018-01-12T13:33:12.585Z,82.54
2018-01-12T13:34:15.030Z,82.93